Time;durP1;ratioP1;P1;durP2;ratioP2;P2;SDS_P1;SDS_P2;PMS_P1;PMS_P2;Temp;Humidity;BMP_temperature;BMP_pressure;BME280_temperature;BME280_humidity;BME280_pressure;Samples;Min_cycle;Max_cycle;Signal;HPM_P1;HPM_P2
2022/05/29 00:01:32;;;;;;;6.47;2.03;;;9.60;99.90;;;;;;5074452;28;20053;-84
2022/05/29 00:03:57;;;;;;;8.88;2.30;;;9.50;99.90;;;;;;5073479;28;20126;-85
2022/05/29 00:06:24;;;;;;;8.02;2.40;;;9.50;99.90;;;;;;5074151;28;20127;-84
2022/05/29 00:08:50;;;;;;;8.75;2.70;;;9.50;99.90;;;;;;5074276;28;20051;-84
2022/05/29 00:11:16;;;;;;;7.60;2.28;;;9.50;99.90;;;;;;5074612;28;20479;-85
2022/05/29 00:13:44;;;;;;;4.78;2.30;;;9.50;99.90;;;;;;5074192;28;20031;-85
2022/05/29 00:16:10;;;;;;;8.88;2.63;;;9.40;99.90;;;;;;5074331;28;20028;-84
2022/05/29 00:18:37;;;;;;;8.13;2.70;;;9.30;99.90;;;;;;5091276;28;20043;-84
2022/05/29 00:21:05;;;;;;;6.90;2.70;;;9.30;99.90;;;;;;5074824;28;20070;-84
2022/05/29 00:23:35;;;;;;;13.23;2.83;;;9.40;99.90;;;;;;5091411;28;20060;-84
2022/05/29 00:26:01;;;;;;;11.40;2.42;;;9.40;99.90;;;;;;5074233;28;20040;-85
2022/05/29 00:28:26;;;;;;;6.57;2.20;;;9.40;99.90;;;;;;5074387;28;20055;-85
2022/05/29 00:30:52;;;;;;;14.63;2.63;;;9.40;99.90;;;;;;5091294;28;20186;-85
2022/05/29 00:33:18;;;;;;;8.93;2.38;;;9.40;99.90;;;;;;5074865;28;20425;-84
2022/05/29 00:35:43;;;;;;;7.90;2.40;;;9.40;99.90;;;;;;5091730;28;20028;-85
2022/05/29 00:38:11;;;;;;;10.38;3.17;;;9.40;99.90;;;;;;5073885;28;20040;-85
2022/05/29 00:40:51;;;;;;;7.75;2.97;;;9.30;99.90;;;;;;5090788;28;20085;-85
2022/05/29 00:43:17;;;;;;;7.07;2.88;;;9.30;99.90;;;;;;5091100;28;20119;-85
2022/05/29 00:45:54;;;;;;;10.43;2.58;;;9.30;99.90;;;;;;5074351;28;20071;-85
2022/05/29 00:48:20;;;;;;;7.78;2.38;;;9.30;99.90;;;;;;5074031;28;20788;-85
2022/05/29 00:50:49;;;;;;;5.32;2.92;;;9.30;99.90;;;;;;5091014;28;20028;-84
2022/05/29 00:53:15;;;;;;;8.32;2.67;;;9.30;99.90;;;;;;5074074;28;20540;-85
2022/05/29 00:55:45;;;;;;;6.45;2.40;;;9.20;99.90;;;;;;5074210;28;20116;-85
2022/05/29 00:58:11;;;;;;;8.45;2.35;;;9.20;99.90;;;;;;5074060;28;20036;-85
2022/05/29 01:00:37;;;;;;;9.07;2.55;;;9.30;99.90;;;;;;5091206;28;20180;-85
2022/05/29 01:03:04;;;;;;;9.80;3.60;;;9.30;99.90;;;;;;5091061;28;20036;-85
2022/05/29 01:05:32;;;;;;;10.82;2.47;;;9.30;99.90;;;;;;5074097;28;20036;-84
2022/05/29 01:08:20;;;;;;;3.97;2.35;;;9.30;99.90;;;;;;5090262;28;20028;-84
2022/05/29 01:10:58;;;;;;;14.95;3.13;;;9.30;99.90;;;;;;5073794;28;20028;-84
2022/05/29 01:13:44;;;;;;;10.27;2.38;;;9.40;99.90;;;;;;5090494;28;20655;-85
2022/05/29 01:16:39;;;;;;;9.13;1.95;;;9.30;99.90;;;;;;5092221;28;20032;-85
2022/05/29 01:19:23;;;;;;;16.33;2.40;;;9.40;99.90;;;;;;5076670;28;20384;-85
2022/05/29 01:22:23;;;;;;;8.70;2.42;;;9.30;99.90;;;;;;5077220;28;20050;-85
2022/05/29 01:25:10;;;;;;;9.60;2.67;;;9.30;99.90;;;;;;5077698;28;20032;-85
2022/05/29 01:27:57;;;;;;;10.63;3.20;;;9.20;99.90;;;;;;5077443;28;20498;-85
2022/05/29 01:30:25;;;;;;;11.00;2.88;;;9.20;99.90;;;;;;5094066;28;20028;-84
2022/05/29 01:33:16;;;;;;;12.90;2.75;;;9.10;99.90;;;;;;5093837;28;20114;-85
2022/05/29 01:35:41;;;;;;;11.68;2.40;;;9.00;99.90;;;;;;5077014;28;20719;-85
2022/05/29 01:38:10;;;;;;;9.85;2.58;;;9.00;99.90;;;;;;5076750;28;20036;-84
2022/05/29 01:41:07;;;;;;;10.75;3.08;;;8.90;99.90;;;;;;5093831;28;20681;-85
2022/05/29 01:43:41;;;;;;;13.55;3.15;;;8.80;99.90;;;;;;5093363;28;20044;-85
2022/05/29 01:46:24;;;;;;;7.53;3.20;;;8.70;99.90;;;;;;5077053;28;20379;-84
2022/05/29 01:49:00;;;;;;;9.05;2.67;;;8.60;99.90;;;;;;5093375;28;20036;-85
2022/05/29 01:51:36;;;;;;;13.25;2.45;;;8.60;99.90;;;;;;5076890;28;20512;-85
2022/05/29 01:54:06;;;;;;;9.30;3.42;;;8.50;99.90;;;;;;5077216;28;20024;-84
2022/05/29 01:56:52;;;;;;;12.57;3.05;;;8.50;99.90;;;;;;5077304;28;20035;-85
2022/05/29 01:59:23;;;;;;;12.02;3.28;;;8.40;99.90;;;;;;5076938;28;20032;-84
2022/05/29 02:01:56;;;;;;;10.18;3.10;;;8.30;99.90;;;;;;5093695;28;20471;-85
2022/05/29 02:04:26;;;;;;;11.45;3.20;;;8.30;99.90;;;;;;5093971;28;20424;-85
2022/05/29 02:07:47;;;;;;;7.57;2.25;;;8.20;99.90;;;;;;5093670;28;20035;-84
2022/05/29 02:10:19;;;;;;;12.77;3.72;;;8.10;99.90;;;;;;5076978;28;20043;-85
2022/05/29 02:12:49;;;;;;;;;;;8.10;99.90;;;;;;5076831;28;20044;-85
2022/05/29 02:15:20;;;;;;;10.80;3.20;;;8.00;99.90;;;;;;5076879;28;20026;-85
2022/05/29 02:17:54;;;;;;;6.82;2.47;;;8.00;99.90;;;;;;5076329;28;20043;-84
2022/05/29 02:20:41;;;;;;;10.30;3.15;;;8.00;99.90;;;;;;5076650;28;20034;-84
2022/05/29 02:23:20;;;;;;;8.40;3.10;;;8.00;99.90;;;;;;5076633;28;20054;-85
2022/05/29 02:25:47;;;;;;;8.50;3.05;;;8.00;99.90;;;;;;5093009;28;20032;-85
2022/05/29 02:28:24;;;;;;;7.70;3.08;;;7.90;99.90;;;;;;5075606;28;20050;-84
2022/05/29 02:31:40;;;;;;;11.10;3.35;;;7.90;99.90;;;;;;5093117;28;20024;-85
2022/05/29 02:34:18;;;;;;;7.18;2.90;;;7.90;99.90;;;;;;5042382;28;20085;-84
2022/05/29 02:37:14;;;;;;;9.18;2.90;;;7.90;99.90;;;;;;5075932;28;20039;-85
2022/05/29 02:39:43;;;;;;;10.82;3.38;;;7.80;99.90;;;;;;5075899;28;20032;-84
2022/05/29 02:42:21;;;;;;;10.52;3.10;;;7.80;99.90;;;;;;5076293;28;20036;-84
2022/05/29 02:45:13;;;;;;;6.53;2.58;;;7.80;99.90;;;;;;5075980;28;20582;-85
2022/05/29 02:47:50;;;;;;;;;;;7.80;99.90;;;;;;5092689;28;20042;-85
2022/05/29 02:50:34;;;;;;;4.88;2.40;;;7.70;99.90;;;;;;5093848;28;20282;-85
2022/05/29 02:53:06;;;;;;;12.30;3.13;;;7.70;99.90;;;;;;5092383;28;20024;-85
2022/05/29 02:55:32;;;;;;;12.10;3.60;;;7.60;99.90;;;;;;5092309;28;20032;-85
2022/05/29 02:58:01;;;;;;;10.02;3.20;;;7.60;99.90;;;;;;5091915;28;20042;-84
2022/05/29 03:00:36;;;;;;;10.75;3.10;;;7.60;99.90;;;;;;5075193;28;20043;-85
2022/05/29 03:03:30;;;;;;;13.57;3.50;;;7.60;99.90;;;;;;5091857;28;20102;-85
2022/05/29 03:06:14;;;;;;;12.13;2.75;;;7.60;99.90;;;;;;5075553;28;20038;-84
2022/05/29 03:08:59;;;;;;;13.30;3.03;;;7.60;99.90;;;;;;5075096;28;20476;-85
2022/05/29 03:11:42;;;;;;;16.15;3.35;;;7.60;99.90;;;;;;5075204;28;20417;-85
2022/05/29 03:14:26;;;;;;;13.65;3.05;;;7.50;99.90;;;;;;5092043;28;20475;-85
2022/05/29 03:17:11;;;;;;;13.68;3.60;;;7.50;99.90;;;;;;5075015;28;20035;-85
2022/05/29 03:19:50;;;;;;;15.70;4.25;;;7.40;99.90;;;;;;5091930;28;20032;-85
2022/05/29 03:22:54;;;;;;;13.68;2.88;;;7.30;99.90;;;;;;5075096;28;20032;-85
2022/05/29 03:25:31;;;;;;;14.38;3.35;;;7.30;99.90;;;;;;5091865;28;20032;-84
2022/05/29 03:28:04;;;;;;;12.73;3.67;;;7.20;99.90;;;;;;5074890;28;20411;-82
2022/05/29 03:30:39;;;;;;;9.50;3.35;;;7.30;99.90;;;;;;5091663;28;20371;-82
2022/05/29 03:33:07;;;;;;;14.63;3.50;;;7.30;99.90;;;;;;5091628;28;20036;-83
2022/05/29 03:35:36;;;;;;;15.60;3.22;;;7.30;99.90;;;;;;5091587;28;20032;-83
2022/05/29 03:38:04;;;;;;;13.48;3.53;;;7.40;99.90;;;;;;5090799;28;20047;-83
2022/05/29 03:40:32;;;;;;;9.43;2.90;;;7.40;99.90;;;;;;5090993;28;20028;-83
2022/05/29 03:42:59;;;;;;;15.38;4.05;;;7.50;99.90;;;;;;5091073;28;20043;-82
2022/05/29 03:45:25;;;;;;;11.60;4.45;;;7.40;99.90;;;;;;5091543;28;20487;-83
2022/05/29 03:47:51;;;;;;;9.27;3.33;;;7.40;99.90;;;;;;5074182;28;20032;-83
2022/05/29 03:50:18;;;;;;;14.70;3.80;;;7.40;99.90;;;;;;5074507;28;20034;-83
2022/05/29 03:52:45;;;;;;;13.57;3.25;;;7.50;99.90;;;;;;5074290;28;20028;-83
2022/05/29 03:55:12;;;;;;;9.38;2.78;;;7.50;99.90;;;;;;5074213;28;20418;-83
2022/05/29 03:57:39;;;;;;;7.95;3.08;;;7.60;99.90;;;;;;5073934;28;20027;-82
2022/05/29 04:00:08;;;;;;;14.88;3.42;;;7.70;99.90;;;;;;5074114;28;20127;-83
2022/05/29 04:02:40;;;;;;;14.30;3.53;;;7.80;99.90;;;;;;5091117;28;20071;-83
2022/05/29 04:05:19;;;;;;;15.75;3.50;;;7.90;99.90;;;;;;5073774;28;20032;-83
2022/05/29 04:13:15;;;;;;;15.48;2.88;;;8.20;99.90;;;;;;5090256;28;20407;-83
2022/05/29 04:15:45;;;;;;;10.18;3.05;;;8.20;99.90;;;;;;5090972;28;20066;-83
2022/05/29 04:18:15;;;;;;;19.95;4.35;;;8.30;99.90;;;;;;5090832;28;20028;-82
2022/05/29 04:20:42;;;;;;;16.40;3.45;;;8.30;99.90;;;;;;5073949;28;20028;-83
2022/05/29 04:23:07;;;;;;;13.25;3.22;;;8.40;99.90;;;;;;5090791;28;20051;-82
2022/05/29 04:25:33;;;;;;;21.40;3.38;;;8.40;99.90;;;;;;5074036;28;20491;-83
2022/05/29 04:28:01;;;;;;;15.85;4.07;;;8.50;99.90;;;;;;5073629;28;20032;-83
2022/05/29 04:30:30;;;;;;;12.75;3.60;;;8.50;99.90;;;;;;5090587;28;20061;-82
2022/05/29 04:33:01;;;;;;;10.57;3.33;;;8.60;99.90;;;;;;5073720;28;20780;-83
2022/05/29 04:35:36;;;;;;;15.25;3.80;;;8.80;99.90;;;;;;5090832;28;20047;-83
2022/05/29 04:38:39;;;;;;;10.23;2.67;;;8.90;99.90;;;;;;5073705;28;20046;-82
2022/05/29 04:41:09;;;;;;;12.55;3.00;;;9.10;99.90;;;;;;5073773;28;20177;-83
2022/05/29 04:43:35;;;;;;;11.40;3.03;;;9.00;99.90;;;;;;5074198;28;20036;-83
2022/05/29 04:46:01;;;;;;;16.13;3.58;;;9.10;99.90;;;;;;5091059;28;20024;-83
2022/05/29 04:48:27;;;;;;;8.45;2.95;;;9.00;99.90;;;;;;5090447;28;20032;-83
2022/05/29 04:51:01;;;;;;;15.60;3.10;;;8.80;99.90;;;;;;5073218;28;20036;-83
2022/05/29 04:53:28;;;;;;;10.88;3.13;;;8.70;99.90;;;;;;5077269;28;20067;-84
2022/05/29 04:55:56;;;;;;;13.15;4.18;;;8.40;99.90;;;;;;5093661;28;20115;-84
2022/05/29 04:58:24;;;;;;;13.10;4.35;;;7.90;99.90;;;;;;5090228;28;20114;-84
2022/05/29 05:00:54;;;;;;;17.00;4.97;;;7.40;99.90;;;;;;5094416;28;20044;-84
2022/05/29 05:03:20;;;;;;;25.43;4.47;;;7.00;99.90;;;;;;5077514;28;20475;-85
2022/05/29 05:05:47;;;;;;;18.85;4.72;;;6.90;99.90;;;;;;5094485;28;20083;-83
2022/05/29 05:08:12;;;;;;;14.15;4.85;;;6.80;99.90;;;;;;5093720;28;20027;-84
2022/05/29 05:10:40;;;;;;;11.02;4.90;;;6.80;99.90;;;;;;5093993;28;20483;-84
2022/05/29 05:13:08;;;;;;;20.13;5.30;;;6.70;99.90;;;;;;5076628;28;20391;-83
2022/05/29 05:15:34;;;;;;;12.30;5.03;;;6.70;99.90;;;;;;5072728;28;20081;-84
2022/05/29 05:18:00;;;;;;;14.38;5.32;;;6.70;99.90;;;;;;5076420;28;20028;-83
2022/05/29 05:20:26;;;;;;;14.80;4.75;;;6.70;99.90;;;;;;5076977;28;20433;-84
2022/05/29 05:22:53;;;;;;;18.17;5.22;;;6.70;99.90;;;;;;5077342;28;20032;-84
2022/05/29 05:25:19;;;;;;;18.30;5.25;;;6.70;99.90;;;;;;5077162;28;20063;-84
2022/05/29 05:27:45;;;;;;;18.60;5.95;;;6.70;99.90;;;;;;5076860;28;20059;-85
2022/05/29 05:30:11;;;;;;;17.85;5.13;;;6.70;99.90;;;;;;5076550;28;20032;-83
2022/05/29 05:32:37;;;;;;;18.10;5.72;;;6.70;99.90;;;;;;5093966;28;20032;-85
2022/05/29 05:35:06;;;;;;;21.35;5.35;;;6.80;99.90;;;;;;5076915;28;20020;-85
2022/05/29 05:37:35;;;;;;;17.33;5.68;;;6.80;99.90;;;;;;5093444;28;20039;-85
2022/05/29 05:40:04;;;;;;;22.83;6.22;;;6.80;99.90;;;;;;5093602;28;20035;-84
2022/05/29 05:42:30;;;;;;;17.73;5.40;;;6.90;99.90;;;;;;5076728;28;20195;-83
2022/05/29 05:44:56;;;;;;;18.27;5.28;;;6.90;99.90;;;;;;5076464;28;20110;-84
2022/05/29 05:47:22;;;;;;;11.32;5.10;;;6.90;99.90;;;;;;5093097;28;20039;-85
2022/05/29 05:49:51;;;;;;;21.13;6.55;;;6.90;99.90;;;;;;5093794;28;20024;-84
2022/05/29 05:52:18;;;;;;;15.27;5.53;;;7.00;99.90;;;;;;5076914;28;20032;-84
2022/05/29 05:54:44;;;;;;;15.48;5.63;;;7.10;99.90;;;;;;5093525;28;20101;-84
2022/05/29 05:57:11;;;;;;;20.65;6.20;;;7.10;99.90;;;;;;5076344;28;20042;-84
2022/05/29 05:59:38;;;;;;;41.40;19.80;;;7.10;99.90;;;;;;5071674;28;20127;-84
2022/05/29 06:02:09;;;;;;;26.15;10.55;;;7.20;99.90;;;;;;5075688;28;20054;-84
2022/05/29 06:04:36;;;;;;;13.60;5.28;;;7.20;99.90;;;;;;5093193;28;20036;-85
2022/05/29 06:07:02;;;;;;;25.70;6.80;;;7.30;99.90;;;;;;5075196;28;20056;-84
2022/05/29 06:09:29;;;;;;;15.18;5.05;;;7.40;99.90;;;;;;5091653;28;20063;-84
2022/05/29 06:11:55;;;;;;;18.58;5.60;;;7.50;99.90;;;;;;5072356;28;20040;-84
2022/05/29 06:14:22;;;;;;;18.33;5.22;;;7.60;99.90;;;;;;5076095;28;20446;-85
2022/05/29 06:16:47;;;;;;;14.48;5.85;;;7.60;99.90;;;;;;5075726;28;20024;-84
2022/05/29 06:19:13;;;;;;;12.13;5.03;;;7.70;99.90;;;;;;5075663;28;20039;-85
2022/05/29 06:21:39;;;;;;;25.02;5.75;;;7.80;99.90;;;;;;5092132;28;20875;-85
2022/05/29 06:24:05;;;;;;;14.20;5.13;;;7.90;99.90;;;;;;5075854;28;20040;-83
2022/05/29 06:26:31;;;;;;;22.95;6.15;;;7.90;99.90;;;;;;5092613;28;20547;-84
2022/05/29 06:28:57;;;;;;;27.63;5.80;;;7.90;99.90;;;;;;5092957;28;20167;-85
2022/05/29 06:31:23;;;;;;;11.00;5.68;;;7.70;99.90;;;;;;5092915;28;20046;-84
2022/05/29 06:33:49;;;;;;;16.05;5.78;;;7.50;99.90;;;;;;5092748;28;20028;-84
2022/05/29 06:36:23;;;;;;;11.68;5.63;;;7.30;99.90;;;;;;5092808;28;20026;-84
2022/05/29 06:39:22;;;;;;;24.40;7.68;;;7.20;99.90;;;;;;5075900;28;20028;-85
2022/05/29 06:41:49;;;;;;;26.80;6.80;;;7.20;99.90;;;;;;5075377;28;20042;-85
2022/05/29 06:44:22;;;;;;;18.98;6.55;;;7.20;99.90;;;;;;5092071;28;20027;-85
2022/05/29 06:46:48;;;;;;;26.35;7.53;;;7.10;99.90;;;;;;5073782;28;20036;-85
2022/05/29 06:49:13;;;;;;;18.80;7.65;;;7.00;99.90;;;;;;5090810;28;20024;-84
2022/05/29 06:51:39;;;;;;;21.20;8.25;;;6.90;99.90;;;;;;5074223;28;20475;-84
2022/05/29 06:54:05;;;;;;;23.65;8.73;;;6.70;99.90;;;;;;5074598;28;20036;-84
2022/05/29 06:56:31;;;;;;;27.80;8.13;;;6.70;99.90;;;;;;5074623;28;20368;-84
2022/05/29 06:58:58;;;;;;;27.73;8.27;;;6.70;99.90;;;;;;5075005;28;20130;-84
2022/05/29 07:07:09;;;;;;;18.52;7.15;;;6.50;99.90;;;;;;5090114;28;20047;-85
2022/05/29 07:09:41;;;;;;;23.67;7.82;;;6.40;99.90;;;;;;5091136;28;20123;-84
2022/05/29 07:12:10;;;;;;;24.90;8.30;;;6.30;99.90;;;;;;5090936;28;20139;-84
2022/05/29 07:14:38;;;;;;;20.60;7.55;;;6.30;99.90;;;;;;5090511;28;20028;-85
2022/05/29 07:17:06;;;;;;;24.95;7.65;;;6.30;99.90;;;;;;5073260;28;20032;-83
2022/05/29 07:19:32;;;;;;;21.55;8.05;;;6.40;99.90;;;;;;5090847;28;20386;-83
2022/05/29 07:21:58;;;;;;;26.83;9.10;;;6.30;99.90;;;;;;5073459;28;20028;-83
2022/05/29 07:24:26;;;;;;;19.08;9.50;;;6.30;99.90;;;;;;5090738;28;20058;-84
2022/05/29 07:26:53;;;;;;;28.17;9.52;;;6.30;99.90;;;;;;5073625;28;20032;-84
2022/05/29 07:29:20;;;;;;;27.08;9.80;;;6.30;99.90;;;;;;5074119;28;20475;-84
2022/05/29 07:31:46;;;;;;;27.25;12.07;;;6.40;99.90;;;;;;5074158;28;20391;-83
2022/05/29 07:34:12;;;;;;;17.45;8.82;;;6.50;99.90;;;;;;5090921;28;20433;-85
2022/05/29 07:36:38;;;;;;;21.45;10.38;;;6.60;99.90;;;;;;5073884;28;20414;-84
2022/05/29 07:39:05;;;;;;;21.95;9.82;;;6.70;99.90;;;;;;5073825;28;20063;-84
2022/05/29 07:44:15;;;;;;;24.02;9.02;;;7.00;99.90;;;;;;5090660;28;20028;-85
2022/05/29 07:46:40;;;;;;;24.15;8.80;;;7.10;99.90;;;;;;5090660;28;20030;-84
2022/05/29 07:49:06;;;;;;;24.35;8.30;;;7.20;99.90;;;;;;5073973;28;20020;-84
2022/05/29 07:51:33;;;;;;;15.40;6.20;;;7.30;99.90;;;;;;5091047;28;20036;-85
2022/05/29 07:53:59;;;;;;;16.77;5.75;;;7.40;99.90;;;;;;5074359;28;20031;-85
2022/05/29 07:56:28;;;;;;;24.02;6.90;;;7.60;99.90;;;;;;5074990;28;20028;-85
2022/05/29 07:58:54;;;;;;;20.65;6.82;;;7.90;99.90;;;;;;5074207;28;20475;-85
2022/05/29 08:01:19;;;;;;;21.60;6.82;;;8.10;99.90;;;;;;5085298;28;20088;-85
2022/05/29 08:03:45;;;;;;;8.73;4.43;;;8.40;99.90;;;;;;5089403;28;20558;-85
2022/05/29 08:06:12;;;;;;;16.90;3.63;;;8.60;99.90;;;;;;5091610;28;20440;-84
2022/05/29 08:08:38;;;;;;;6.88;3.38;;;8.90;99.90;;;;;;5090705;28;20039;-84
2022/05/29 08:11:03;;;;;;;6.00;2.42;;;9.30;99.90;;;;;;5074186;28;20077;-84
2022/05/29 08:13:31;;;;;;;7.65;2.15;;;9.80;99.90;;;;;;5073894;28;20499;-84
2022/05/29 08:15:57;;;;;;;3.20;2.20;;;11.10;99.90;;;;;;5074240;28;20139;-85
2022/05/29 08:18:24;;;;;;;9.82;3.92;;;12.70;99.90;;;;;;5074261;28;20171;-85
2022/05/29 08:20:58;;;;;;;11.20;4.07;;;13.00;99.90;;;;;;5091238;28;20085;-84
2022/05/29 08:23:24;;;;;;;15.02;4.55;;;12.20;99.90;;;;;;5091182;28;20125;-85
2022/05/29 08:31:23;;;;;;;12.68;4.03;;;12.30;99.90;;;;;;5095272;28;20060;-86
2022/05/29 08:33:49;;;;;;;7.32;2.40;;;13.40;99.90;;;;;;5095032;28;20040;-86
2022/05/29 08:36:24;;;;;;;10.82;3.00;;;14.80;99.90;;;;;;5077769;28;20028;-86
2022/05/29 08:38:52;;;;;;;10.07;3.70;;;15.40;99.90;;;;;;5077708;28;20027;-86
2022/05/29 08:41:33;;;;;;;11.50;2.83;;;15.00;99.90;;;;;;5078379;28;20487;-85
2022/05/29 08:44:05;;;;;;;8.02;2.15;;;14.50;99.90;;;;;;5077784;28;20093;-85
2022/05/29 08:46:36;;;;;;;7.13;2.30;;;14.00;99.90;;;;;;5077853;28;20035;-85
2022/05/29 08:49:02;;;;;;;13.63;3.65;;;13.40;99.90;;;;;;5094509;28;20119;-85
2022/05/29 08:52:00;;;;;;;15.52;4.55;;;13.10;99.90;;;;;;5078073;28;20077;-85
2022/05/29 08:54:37;;;;;;;6.45;2.78;;;12.60;99.90;;;;;;5094607;28;20081;-85
2022/05/29 08:57:25;;;;;;;8.95;3.08;;;12.00;99.90;;;;;;5077263;28;20065;-85
2022/05/29 08:59:59;;;;;;;8.05;3.47;;;12.10;99.90;;;;;;5094560;28;20036;-86
2022/05/29 09:02:56;;;;;;;13.13;3.58;;;12.20;99.90;;;;;;5093559;28;20119;-86
2022/05/29 09:05:35;;;;;;;6.05;2.90;;;11.80;99.90;;;;;;5076667;28;20071;-86
2022/05/29 09:08:08;;;;;;;6.57;3.13;;;11.60;99.90;;;;;;5076115;28;20054;-85
2022/05/29 09:10:34;;;;;;;10.60;3.28;;;11.40;99.90;;;;;;5076431;28;20032;-85
2022/05/29 09:13:04;;;;;;;14.57;4.35;;;11.50;99.90;;;;;;5076979;28;20039;-85
2022/05/29 09:15:29;;;;;;;9.07;3.70;;;11.50;99.90;;;;;;5071447;28;20036;-86
2022/05/29 09:18:00;;;;;;;9.57;3.42;;;11.40;99.90;;;;;;5088870;28;20391;-84
2022/05/29 09:20:31;;;;;;;11.05;4.53;;;11.60;99.90;;;;;;5075989;28;20715;-85
2022/05/29 09:23:01;;;;;;;9.85;3.55;;;11.70;99.90;;;;;;5092747;28;20090;-85
2022/05/29 09:25:42;;;;;;;15.45;4.15;;;11.80;99.90;;;;;;5075974;28;20034;-85
2022/05/29 09:28:18;;;;;;;11.98;3.50;;;11.80;99.90;;;;;;5093304;28;20439;-85
2022/05/29 09:30:44;;;;;;;8.93;3.35;;;12.00;99.90;;;;;;5076378;28;20038;-85
2022/05/29 09:33:17;;;;;;;9.88;4.10;;;12.30;99.90;;;;;;5093806;28;20032;-85
2022/05/29 09:36:23;;;;;;;11.35;3.30;;;12.70;99.90;;;;;;5092884;28;20035;-85
2022/05/29 09:38:52;;;;;;;16.58;4.03;;;13.10;99.90;;;;;;5075512;28;20036;-86
2022/05/29 09:41:21;;;;;;;9.50;2.97;;;13.30;99.90;;;;;;5092793;28;20036;-85
2022/05/29 09:44:09;;;;;;;11.35;3.55;;;13.00;99.90;;;;;;5076026;28;20493;-85
2022/05/29 09:46:44;;;;;;;16.23;5.78;;;13.40;99.90;;;;;;5093194;28;20047;-85
2022/05/29 09:49:42;;;;;;;11.80;3.60;;;13.90;99.90;;;;;;5092574;28;20058;-85
2022/05/29 09:52:20;;;;;;;9.05;3.97;;;13.80;99.90;;;;;;5075550;28;20020;-85
2022/05/29 09:54:57;;;;;;;11.63;3.53;;;13.90;99.90;;;;;;5075870;28;20161;-86
2022/05/29 09:57:36;;;;;;;11.32;3.60;;;14.20;99.90;;;;;;5092083;28;20036;-86
2022/05/29 10:00:23;;;;;;;12.93;4.90;;;14.50;99.90;;;;;;5092476;28;20075;-84
2022/05/29 10:02:49;;;;;;;12.27;3.58;;;14.20;99.90;;;;;;5092447;28;20054;-85
2022/05/29 10:05:37;;;;;;;12.05;3.20;;;14.30;99.90;;;;;;5075369;28;20028;-85
2022/05/29 10:08:25;;;;;;;13.25;3.17;;;14.00;99.90;;;;;;5091883;28;20028;-85
2022/05/29 10:10:50;;;;;;;9.38;3.42;;;13.80;99.90;;;;;;5075642;28;20035;-84
2022/05/29 10:13:38;;;;;;;13.90;3.33;;;13.30;99.90;;;;;;5092124;28;20115;-85
2022/05/29 10:16:04;;;;;;;7.68;2.92;;;13.30;99.90;;;;;;5070613;28;20387;-84
2022/05/29 10:18:35;;;;;;;12.23;3.50;;;13.00;99.90;;;;;;5072428;28;20031;-84
2022/05/29 10:21:24;;;;;;;;;;;13.20;99.90;;;;;;5091632;28;20035;-84
2022/05/29 10:23:53;;;;;;;11.88;3.50;;;13.20;99.90;;;;;;5069581;28;19915;-85
2022/05/29 10:26:29;;;;;;;12.25;3.25;;;14.00;99.90;;;;;;5091740;28;20032;-85
2022/05/29 10:28:55;;;;;;;10.10;2.88;;;14.60;99.90;;;;;;5075152;28;20395;-84
2022/05/29 10:31:25;;;;;;;10.48;2.90;;;14.90;99.90;;;;;;5075811;28;20024;-84
2022/05/29 10:34:28;;;;;;;12.60;3.22;;;14.90;99.90;;;;;;5092780;28;20032;-84
2022/05/29 10:36:56;;;;;;;11.25;2.60;;;15.10;99.90;;;;;;5079850;28;20040;-84
2022/05/29 10:39:24;;;;;;;9.75;2.47;;;15.80;99.90;;;;;;5075474;28;20020;-82
2022/05/29 10:41:52;;;;;;;8.30;3.05;;;16.10;99.90;;;;;;5092365;28;20032;-82
2022/05/29 10:44:44;;;;;;;11.32;2.55;;;16.60;99.90;;;;;;5075539;28;20395;-82
2022/05/29 10:47:16;;;;;;;13.95;3.65;;;16.60;99.90;;;;;;5075008;28;20032;-82
2022/05/29 10:50:09;;;;;;;7.25;2.65;;;16.60;99.90;;;;;;5075303;28;20491;-82
2022/05/29 10:52:53;;;;;;;8.00;3.35;;;16.90;99.90;;;;;;5075103;28;20028;-82
2022/05/29 10:55:29;;;;;;;9.38;3.00;;;17.00;99.90;;;;;;5074574;28;20173;-81
2022/05/29 10:58:12;;;;;;;10.20;2.50;;;17.00;99.90;;;;;;5074325;28;20028;-82
2022/05/29 11:01:03;;;;;;;11.55;3.17;;;17.60;99.90;;;;;;5074383;28;20040;-82
2022/05/29 11:03:35;;;;;;;6.82;2.58;;;17.80;99.90;;;;;;5091609;28;20035;-84
2022/05/29 11:06:17;;;;;;;8.75;2.70;;;18.30;99.90;;;;;;5072791;28;20071;-84
2022/05/29 11:09:03;;;;;;;10.32;2.53;;;18.20;99.90;;;;;;5089414;28;20036;-83
2022/05/29 11:11:55;;;;;;;10.30;2.90;;;17.80;99.90;;;;;;5074030;28;20117;-83
2022/05/29 11:14:54;;;;;;;8.60;2.50;;;17.80;99.90;;;;;;5091701;28;20032;-83
2022/05/29 11:17:43;;;;;;;9.60;3.13;;;17.60;99.90;;;;;;5069070;28;20036;-82
2022/05/29 11:20:34;;;;;;;8.20;2.60;;;17.60;99.90;;;;;;5074623;28;20085;-83
2022/05/29 11:23:31;;;;;;;8.65;2.95;;;17.20;99.90;;;;;;5091380;28;20032;-82
2022/05/29 11:26:07;;;;;;;11.63;3.28;;;16.60;99.90;;;;;;5090884;28;20032;-82
2022/05/29 11:29:09;;;;;;;9.48;3.40;;;15.50;99.90;;;;;;5073904;28;20074;-82
2022/05/29 11:31:54;;;;;;;12.45;3.55;;;14.40;99.90;;;;;;5091320;28;20039;-82
2022/05/29 11:34:37;;;;;;;13.63;3.60;;;13.50;99.90;;;;;;5074130;28;20525;-83
2022/05/29 11:37:22;;;;;;;8.93;3.20;;;12.40;99.90;;;;;;5091022;28;20089;-82
2022/05/29 11:40:08;;;;;;;8.20;3.17;;;11.80;99.90;;;;;;5074280;28;20028;-83
2022/05/29 11:42:42;;;;;;;4.60;2.42;;;11.10;99.90;;;;;;5074857;28;20036;-83
2022/05/29 11:51:21;;;;;;;8.88;3.35;;;10.40;99.90;;;;;;5090679;28;20035;-82
2022/05/29 11:53:55;;;;;;;9.98;3.83;;;10.30;99.90;;;;;;5073774;28;20032;-83
2022/05/29 11:56:47;;;;;;;17.95;7.10;;;10.30;99.90;;;;;;5091154;28;20114;-82
2022/05/29 11:59:16;;;;;;;;;;;10.60;99.90;;;;;;5064703;28;20040;-82
2022/05/29 12:01:47;;;;;;;12.05;2.85;;;10.90;99.90;;;;;;5090117;28;19915;-82
2022/05/29 12:04:26;;;;;;;12.45;3.63;;;11.30;99.90;;;;;;5091499;28;20479;-82
2022/05/29 12:07:05;;;;;;;16.90;5.38;;;11.80;99.90;;;;;;5074022;28;20085;-82
2022/05/29 12:09:42;;;;;;;10.55;4.35;;;12.10;99.90;;;;;;5090171;28;20422;-82
2022/05/29 12:12:17;;;;;;;9.88;3.05;;;12.20;99.90;;;;;;5074097;28;20119;-81
2022/05/29 12:14:58;;;;;;;16.85;2.95;;;12.00;99.90;;;;;;5091109;28;20333;-82
2022/05/29 12:17:36;;;;;;;10.90;2.38;;;11.70;99.90;;;;;;5088594;28;20028;-82
2022/05/29 12:20:37;;;;;;;16.30;3.20;;;11.40;99.90;;;;;;5090630;28;20127;-82
2022/05/29 12:27:05;;;;;;;9.20;2.47;;;11.60;99.90;;;;;;5090266;28;20116;-82
2022/05/29 12:29:52;;;;;;;7.22;2.50;;;11.50;99.90;;;;;;5073906;28;20032;-82
2022/05/29 12:32:22;;;;;;;8.85;2.58;;;11.30;99.90;;;;;;5090686;28;20042;-82
2022/05/29 12:35:00;;;;;;;9.48;2.45;;;11.50;99.90;;;;;;5091018;28;20085;-82
2022/05/29 12:37:28;;;;;;;8.10;2.70;;;11.60;99.90;;;;;;5090422;28;20036;-83
2022/05/29 12:40:31;;;;;;;5.30;2.28;;;11.50;99.90;;;;;;5091934;28;20421;-82
2022/05/29 12:43:41;;;;;;;8.02;2.17;;;11.50;99.90;;;;;;5073865;28;20750;-83
2022/05/29 12:46:22;;;;;;;8.02;2.15;;;11.70;99.90;;;;;;5073805;28;20036;-82
2022/05/29 12:48:53;;;;;;;10.85;2.72;;;12.20;99.90;;;;;;5073235;28;20379;-83
2022/05/29 12:51:22;;;;;;;;;;;12.50;99.90;;;;;;5091252;28;20073;-83
2022/05/29 12:54:19;;;;;;;9.70;2.75;;;12.80;99.90;;;;;;5074172;28;19953;-83
2022/05/29 12:57:03;;;;;;;11.88;3.17;;;13.10;99.90;;;;;;5090929;28;20052;-83
2022/05/29 13:00:15;;;;;;;4.65;1.98;;;13.30;99.90;;;;;;5090842;28;20042;-83
2022/05/29 13:03:13;;;;;;;7.70;1.80;;;13.70;99.90;;;;;;5074033;28;20540;-83
2022/05/29 13:06:03;;;;;;;5.97;1.92;;;13.50;99.90;;;;;;5074228;28;20487;-83
2022/05/29 13:08:54;;;;;;;4.88;1.70;;;13.30;99.90;;;;;;5073225;28;20031;-83
2022/05/29 13:11:25;;;;;;;6.50;1.60;;;13.60;99.90;;;;;;5090650;28;20071;-83
2022/05/29 13:13:56;;;;;;;10.68;2.65;;;13.80;99.90;;;;;;5076997;28;20036;-83
2022/05/29 13:16:30;;;;;;;6.55;2.30;;;13.70;99.90;;;;;;5077616;28;20487;-83
2022/05/29 13:19:21;;;;;;;6.72;2.72;;;13.80;99.90;;;;;;5093880;28;20040;-83
2022/05/29 13:22:05;;;;;;;6.05;2.50;;;14.00;99.90;;;;;;5077190;28;20040;-83
2022/05/29 13:24:44;;;;;;;7.90;2.03;;;14.60;99.90;;;;;;5077051;28;20384;-83
2022/05/29 13:27:13;;;;;;;5.35;2.00;;;14.70;99.90;;;;;;5076902;28;20056;-83
2022/05/29 13:29:43;;;;;;;8.82;2.83;;;15.50;99.90;;;;;;5072523;28;20111;-84
2022/05/29 13:32:17;;;;;;;8.25;1.90;;;16.10;99.90;;;;;;5077133;28;20035;-83
2022/05/29 13:34:43;;;;;;;5.10;1.35;;;17.80;99.90;;;;;;5094170;28;20028;-83
2022/05/29 13:37:40;;;;;;;6.13;1.83;;;19.60;99.90;;;;;;5075403;28;20511;-84
2022/05/29 13:40:27;;;;;;;4.07;1.25;;;20.80;88.80;;;;;;5077162;28;20815;-84
2022/05/29 13:43:15;;;;;;;4.20;1.63;;;21.60;80.30;;;;;;5075101;28;20032;-84
2022/05/29 13:45:44;;;;;;;5.50;1.40;;;22.10;76.10;;;;;;5091998;28;20028;-83
2022/05/29 13:48:27;;;;;;;5.90;1.88;;;23.40;74.60;;;;;;5092965;28;20034;-84
2022/05/29 13:51:11;;;;;;;10.45;4.25;;;22.70;72.40;;;;;;5093418;28;20092;-84
2022/05/29 13:54:01;;;;;;;6.30;2.33;;;21.40;74.30;;;;;;5093282;28;20032;-84
2022/05/29 13:56:55;;;;;;;6.10;1.50;;;20.00;72.50;;;;;;5076332;28;20032;-83